createdAt,value
2017-08-06T00:01:58.639Z,101215.53
2017-08-06T00:04:25.084Z,101222.89
2017-08-06T00:06:57.897Z,101227.33
2017-08-06T00:09:24.533Z,101231.14
2017-08-06T00:11:51.134Z,101224.47
2017-08-06T00:14:23.220Z,101236.95
2017-08-06T00:16:49.978Z,101239.17
2017-08-06T00:19:17.503Z,101236.59
2017-08-06T00:21:49.365Z,101238.64
2017-08-06T00:24:19.439Z,101235.22
2017-08-06T00:26:46.048Z,101247.17
2017-08-06T00:29:12.434Z,101245.56
2017-08-06T00:31:39.728Z,101249.61
2017-08-06T00:34:06.718Z,101251.61
2017-08-06T00:36:33.293Z,101260.13
2017-08-06T00:39:00.164Z,101260.14
2017-08-06T00:41:26.755Z,101259.78
2017-08-06T00:43:56.692Z,101266.73
2017-08-06T00:46:23.208Z,101257.86
2017-08-06T00:48:50.193Z,101260.87
2017-08-06T00:51:16.956Z,101263.87
2017-08-06T00:53:48.972Z,101264.22
2017-08-06T00:56:15.561Z,101271.98
2017-08-06T00:58:42.764Z,101264.71
2017-08-06T01:01:09.232Z,101263.73
2017-08-06T01:03:35.842Z,101270.73
2017-08-06T01:06:08.055Z,101270.66
2017-08-06T01:08:41.093Z,101265.55
2017-08-06T01:11:07.554Z,101273.16
2017-08-06T01:13:34.114Z,101276.57
2017-08-06T01:16:02.320Z,101282.77
2017-08-06T01:18:30.250Z,101278.09
2017-08-06T01:21:00.155Z,101280.09
2017-08-06T01:23:28.656Z,101289.72
2017-08-06T01:25:57.266Z,101290.86
2017-08-06T01:28:32.528Z,101289.48
2017-08-06T01:31:06.434Z,101291.48
2017-08-06T01:33:34.338Z,101287.03
2017-08-06T01:36:00.805Z,101291.30
2017-08-06T01:38:33.147Z,101297.30
2017-08-06T01:41:00.291Z,101292.41
2017-08-06T01:43:27.465Z,101291.70
2017-08-06T01:45:57.507Z,101294.56
2017-08-06T01:48:27.756Z,101299.06
2017-08-06T01:50:59.484Z,101302.06
2017-08-06T01:53:26.329Z,101302.19
2017-08-06T01:55:52.787Z,101301.51
2017-08-06T01:58:19.193Z,101306.66
2017-08-06T02:00:45.606Z,101305.31
2017-08-06T02:03:12.661Z,101313.02
2017-08-06T02:05:39.063Z,101312.06
2017-08-06T02:08:05.601Z,101318.44
2017-08-06T02:10:32.146Z,101314.77
2017-08-06T02:12:58.990Z,101311.91
2017-08-06T02:15:25.555Z,101313.11
2017-08-06T02:17:52.713Z,101318.16
2017-08-06T02:20:19.658Z,101315.38
2017-08-06T02:22:46.036Z,101323.13
2017-08-06T02:25:12.729Z,101326.91
2017-08-06T02:27:40.461Z,101329.69
2017-08-06T02:30:12.181Z,101332.94
2017-08-06T02:32:39.721Z,101332.37
2017-08-06T02:35:06.105Z,101339.05
2017-08-06T02:37:32.615Z,101337.31
2017-08-06T02:39:59.306Z,101343.20
2017-08-06T02:42:26.010Z,101339.06
2017-08-06T02:44:52.507Z,101344.12
2017-08-06T02:47:19.015Z,101346.95
2017-08-06T02:49:51.063Z,101345.95
2017-08-06T02:52:17.959Z,101351.05
2017-08-06T02:54:45.241Z,101342.23
2017-08-06T02:57:11.644Z,101344.95
2017-08-06T02:59:38.467Z,101350.66
2017-08-06T03:02:04.945Z,101354.12
2017-08-06T03:04:36.718Z,101354.07
2017-08-06T03:07:03.423Z,101362.27
2017-08-06T03:09:29.877Z,101358.58
2017-08-06T03:11:56.429Z,101359.34
2017-08-06T03:14:23.246Z,101358.64
2017-08-06T03:16:49.632Z,101364.83
2017-08-06T03:19:16.104Z,101365.66
2017-08-06T03:21:42.709Z,101370.45
2017-08-06T03:24:09.101Z,101368.52
2017-08-06T03:26:35.725Z,101372.63
2017-08-06T03:29:02.178Z,101372.84
2017-08-06T03:31:28.900Z,101367.86
2017-08-06T03:34:03.000Z,101376.31
2017-08-06T03:36:29.374Z,101379.65
2017-08-06T03:38:55.736Z,101377.29
2017-08-06T03:41:22.135Z,101375.59
2017-08-06T03:43:48.521Z,101374.14
2017-08-06T03:46:14.894Z,101377.59
2017-08-06T03:48:41.287Z,101375.94
2017-08-06T03:51:07.684Z,101379.00
2017-08-06T03:53:34.070Z,101375.56
2017-08-06T03:56:00.452Z,101380.38
2017-08-06T03:58:26.818Z,101386.27
2017-08-06T04:00:53.169Z,101387.05
2017-08-06T04:03:19.576Z,101388.06
2017-08-06T04:05:45.995Z,101386.63
2017-08-06T04:08:12.459Z,101388.38
2017-08-06T04:10:38.872Z,101398.12
2017-08-06T04:13:05.285Z,101398.30
2017-08-06T04:15:31.673Z,101400.15
2017-08-06T04:17:58.069Z,101400.76
2017-08-06T04:20:25.261Z,101407.05
2017-08-06T04:22:51.608Z,101405.04
2017-08-06T04:25:18.012Z,101409.11
2017-08-06T04:27:44.426Z,101408.94
2017-08-06T04:30:10.810Z,101411.33
2017-08-06T04:32:37.201Z,101409.61
2017-08-06T04:35:03.588Z,101414.14
2017-08-06T04:37:30.007Z,101416.47
2017-08-06T04:39:56.405Z,101417.88
2017-08-06T04:42:22.801Z,101420.17
2017-08-06T04:44:49.198Z,101423.86
2017-08-06T04:47:15.632Z,101424.80
2017-08-06T04:49:42.036Z,101427.26
2017-08-06T04:52:08.428Z,101430.55
2017-08-06T04:54:34.814Z,101426.25
2017-08-06T04:57:01.167Z,101426.27
2017-08-06T04:59:27.582Z,101429.19
2017-08-06T05:01:53.969Z,101436.12
2017-08-06T05:04:20.375Z,101439.38
2017-08-06T05:06:46.763Z,101447.17
2017-08-06T05:09:13.153Z,101447.23
2017-08-06T05:11:39.531Z,101458.46
2017-08-06T05:14:05.934Z,101460.53
2017-08-06T05:16:32.290Z,101454.50
2017-08-06T05:18:58.655Z,101451.70
2017-08-06T05:21:25.032Z,101453.27
2017-08-06T05:23:51.442Z,101456.33
2017-08-06T05:26:17.815Z,101461.70
2017-08-06T05:28:45.097Z,101458.86
2017-08-06T05:31:11.553Z,101461.86
2017-08-06T05:33:38.002Z,101465.33
2017-08-06T05:36:04.401Z,101470.45
2017-08-06T05:38:30.795Z,101468.55
2017-08-06T05:40:57.202Z,101475.91
2017-08-06T05:43:23.575Z,101483.11
2017-08-06T05:45:49.960Z,101483.05
2017-08-06T05:48:16.339Z,101482.61
2017-08-06T05:50:42.707Z,101481.44
2017-08-06T05:53:09.110Z,101481.17
2017-08-06T05:55:35.525Z,101485.07
2017-08-06T05:58:01.956Z,101489.23
2017-08-06T06:00:28.352Z,101497.36
2017-08-06T06:02:54.739Z,101505.75
2017-08-06T06:05:21.126Z,101504.46
2017-08-06T06:07:47.545Z,101507.23
2017-08-06T06:10:13.952Z,101511.46
2017-08-06T06:12:40.345Z,101510.49
2017-08-06T06:15:06.754Z,101515.13
2017-08-06T06:17:33.118Z,101518.16
2017-08-06T06:19:59.492Z,101524.22
2017-08-06T06:22:25.937Z,101526.98
2017-08-06T06:24:52.352Z,101536.18
2017-08-06T06:27:18.711Z,101531.19
2017-08-06T06:29:45.087Z,101531.09
2017-08-06T06:32:11.464Z,101537.68
2017-08-06T06:34:37.849Z,101545.61
2017-08-06T06:37:04.224Z,101544.18
2017-08-06T06:39:30.608Z,101542.84
2017-08-06T06:41:56.967Z,101550.74
2017-08-06T06:44:23.332Z,101548.47
2017-08-06T06:46:49.745Z,101545.91
2017-08-06T06:49:17.035Z,101552.14
2017-08-06T06:51:43.412Z,101551.87
2017-08-06T06:54:09.757Z,101557.60
2017-08-06T06:56:36.163Z,101558.48
2017-08-06T06:59:02.575Z,101562.03
2017-08-06T07:01:29.007Z,101564.34
2017-08-06T07:03:55.397Z,101566.52
2017-08-06T07:06:21.831Z,101575.87
2017-08-06T07:08:48.269Z,101568.61
2017-08-06T07:11:14.627Z,101571.63
2017-08-06T07:13:41.020Z,101574.82
2017-08-06T07:16:07.394Z,101585.02
2017-08-06T07:18:33.785Z,101575.67
2017-08-06T07:21:00.165Z,101587.24
2017-08-06T07:23:26.620Z,101581.27
2017-08-06T07:25:53.380Z,101582.50
2017-08-06T07:28:19.776Z,101582.36
2017-08-06T07:30:46.154Z,101581.55
2017-08-06T07:33:12.575Z,101590.00
2017-08-06T07:35:38.945Z,101592.06
2017-08-06T07:38:05.336Z,101592.94
2017-08-06T07:40:31.736Z,101596.88
2017-08-06T07:42:58.146Z,101591.30
2017-08-06T07:45:24.537Z,101587.22
2017-08-06T07:47:50.923Z,101592.42
2017-08-06T07:50:17.296Z,101596.91
2017-08-06T07:52:43.680Z,101597.98
2017-08-06T07:55:10.062Z,101598.97
2017-08-06T07:57:36.415Z,101598.97
2017-08-06T08:00:02.832Z,101600.80
2017-08-06T08:02:29.212Z,101607.20
2017-08-06T08:04:55.596Z,101593.95
2017-08-06T08:07:21.968Z,101597.12
2017-08-06T08:09:48.371Z,101600.73
2017-08-06T08:12:14.793Z,101606.97
2017-08-06T08:14:41.151Z,101603.48
2017-08-06T08:17:07.512Z,101605.98
2017-08-06T08:19:33.878Z,101606.47
2017-08-06T08:22:00.330Z,101602.63
2017-08-06T08:24:26.727Z,101608.00
2017-08-06T08:26:53.108Z,101599.97
2017-08-06T08:29:19.500Z,101604.80
2017-08-06T08:31:45.889Z,101606.73
2017-08-06T08:34:12.264Z,101608.71
2017-08-06T08:36:38.639Z,101603.07
2017-08-06T08:39:04.975Z,101606.77
2017-08-06T08:41:31.514Z,101607.37
2017-08-06T08:43:57.875Z,101612.61
2017-08-06T08:46:24.255Z,101608.66
2017-08-06T08:48:50.633Z,101610.07
2017-08-06T08:51:17.033Z,101603.33
2017-08-06T08:53:43.408Z,101606.67
2017-08-06T08:56:09.787Z,101607.43
2017-08-06T08:58:36.167Z,101603.99
2017-08-06T09:01:02.545Z,101608.02
2017-08-06T09:03:28.960Z,101600.15
2017-08-06T09:05:55.659Z,101614.00
2017-08-06T09:08:22.078Z,101610.03
2017-08-06T09:10:48.473Z,101617.47
2017-08-06T09:13:14.841Z,101617.61
2017-08-06T09:15:41.302Z,101611.72
2017-08-06T09:18:07.727Z,101613.27
2017-08-06T09:20:34.096Z,101616.74
2017-08-06T09:23:00.465Z,101620.55
2017-08-06T09:25:26.836Z,101620.84
2017-08-06T09:27:53.232Z,101615.44
2017-08-06T09:30:19.618Z,101612.30
2017-08-06T09:32:46.033Z,101617.58
2017-08-06T09:35:12.409Z,101620.11
2017-08-06T09:37:38.820Z,101621.62
2017-08-06T09:40:05.183Z,101627.70
2017-08-06T09:42:31.576Z,101617.53
2017-08-06T09:44:57.962Z,101619.35
2017-08-06T09:47:24.544Z,101615.84
2017-08-06T09:49:50.947Z,101613.51
2017-08-06T09:52:17.319Z,101611.88
2017-08-06T09:54:43.682Z,101613.99
2017-08-06T09:57:10.083Z,101616.81
2017-08-06T09:59:36.464Z,101610.73
2017-08-06T10:02:02.837Z,101605.03
2017-08-06T10:04:29.236Z,101605.52
2017-08-06T10:06:55.645Z,101610.16
2017-08-06T10:09:22.024Z,101608.29
2017-08-06T10:11:48.401Z,101608.72
2017-08-06T10:14:14.777Z,101603.95
2017-08-06T10:16:41.146Z,101603.95
2017-08-06T10:19:07.572Z,101603.75
2017-08-06T10:21:33.955Z,101599.98
2017-08-06T10:24:00.346Z,101600.88
2017-08-06T10:26:26.777Z,101594.88
2017-08-06T10:28:53.137Z,101599.61
2017-08-06T10:31:20.028Z,101590.03
2017-08-06T10:33:46.410Z,101582.17
2017-08-06T10:36:12.893Z,101583.32
2017-08-06T10:38:39.296Z,101590.05
2017-08-06T10:41:05.680Z,101583.05
2017-08-06T10:43:32.092Z,101582.33
2017-08-06T10:45:58.493Z,101581.27
2017-08-06T10:48:24.877Z,101565.25
2017-08-06T10:50:51.252Z,101568.42
2017-08-06T10:53:17.632Z,101569.03
2017-08-06T10:55:44.024Z,101572.00
2017-08-06T10:58:10.402Z,101568.21
2017-08-06T11:00:36.787Z,101575.25
2017-08-06T11:03:03.177Z,101565.59
2017-08-06T11:05:29.585Z,101564.95
2017-08-06T11:07:55.951Z,101562.47
2017-08-06T11:10:22.347Z,101565.24
2017-08-06T11:12:48.749Z,101562.07
2017-08-06T11:15:15.137Z,101560.05
2017-08-06T11:17:41.525Z,101567.70
2017-08-06T11:20:07.921Z,101560.94
2017-08-06T11:22:34.304Z,101559.65
2017-08-06T11:25:00.720Z,101561.09
2017-08-06T11:27:27.119Z,101557.39
2017-08-06T11:29:53.512Z,101548.05
2017-08-06T11:32:19.904Z,101553.50
2017-08-06T11:34:46.289Z,101557.08
2017-08-06T11:37:12.680Z,101552.47
2017-08-06T11:39:39.081Z,101551.91
2017-08-06T11:42:05.452Z,101548.20
2017-08-06T11:44:31.858Z,101540.94
2017-08-06T11:46:58.187Z,101544.66
2017-08-06T11:49:24.572Z,101544.62
2017-08-06T11:51:50.962Z,101542.37
2017-08-06T11:54:17.341Z,101543.92
2017-08-06T11:56:43.719Z,101539.32
2017-08-06T11:59:10.134Z,101539.39
2017-08-06T12:01:36.559Z,101537.80
2017-08-06T12:04:02.974Z,101536.38
2017-08-06T12:06:29.418Z,101534.57
2017-08-06T12:08:55.777Z,101537.12
2017-08-06T12:11:22.125Z,101532.53
2017-08-06T12:13:48.503Z,101535.20
2017-08-06T12:16:14.848Z,101527.97
2017-08-06T12:18:41.228Z,101530.41
2017-08-06T12:21:07.593Z,101532.47
2017-08-06T12:23:33.953Z,101531.66
2017-08-06T12:26:00.342Z,101539.92
2017-08-06T12:28:26.685Z,101531.98
2017-08-06T12:30:53.046Z,101536.69
2017-08-06T12:33:19.410Z,101535.98
2017-08-06T12:35:45.772Z,101535.88
2017-08-06T12:38:12.158Z,101533.38
2017-08-06T12:40:38.524Z,101533.70
2017-08-06T12:43:04.906Z,101533.50
2017-08-06T12:45:31.237Z,101533.53
2017-08-06T12:47:57.605Z,101536.95
2017-08-06T12:50:23.952Z,101541.50
2017-08-06T12:52:50.325Z,101536.00
2017-08-06T12:55:16.689Z,101531.86
2017-08-06T12:57:43.061Z,101533.86
2017-08-06T13:00:09.444Z,101535.90
2017-08-06T13:02:35.849Z,101535.86
2017-08-06T13:05:02.231Z,101531.55
2017-08-06T13:07:28.585Z,101530.76
2017-08-06T13:09:54.957Z,101536.21
2017-08-06T13:12:21.324Z,101532.58
2017-08-06T13:14:47.702Z,101533.43
2017-08-06T13:17:14.048Z,101530.61
2017-08-06T13:19:40.453Z,101530.62
2017-08-06T13:22:06.845Z,101525.41
2017-08-06T13:24:33.202Z,101524.70
2017-08-06T13:26:59.570Z,101523.80
2017-08-06T13:29:25.915Z,101530.77
2017-08-06T13:31:52.275Z,101521.59
2017-08-06T13:34:18.699Z,101525.80
2017-08-06T13:36:45.066Z,101526.08
2017-08-06T13:39:11.463Z,101522.63
2017-08-06T13:41:37.847Z,101523.34
2017-08-06T13:44:04.341Z,101516.87
2017-08-06T13:46:30.841Z,101519.30
2017-08-06T13:48:59.480Z,101519.83
2017-08-06T13:51:25.877Z,101516.31
2017-08-06T13:53:52.245Z,101513.39
2017-08-06T13:56:18.652Z,101516.06
2017-08-06T13:58:45.011Z,101521.56
2017-08-06T14:01:11.366Z,101517.31
2017-08-06T14:03:37.762Z,101515.86
2017-08-06T14:06:04.212Z,101512.21
2017-08-06T14:08:30.577Z,101517.36
2017-08-06T14:10:56.964Z,101521.19
2017-08-06T14:13:23.374Z,101529.45
2017-08-06T14:15:49.759Z,101523.48
2017-08-06T14:18:16.137Z,101521.17
2017-08-06T14:20:42.521Z,101521.28
2017-08-06T14:23:08.899Z,101516.06
2017-08-06T14:25:35.277Z,101524.75
2017-08-06T14:28:01.651Z,101520.25
2017-08-06T14:30:28.018Z,101525.86
2017-08-06T14:32:54.510Z,101523.27
2017-08-06T14:35:20.891Z,101520.95
2017-08-06T14:37:47.250Z,101517.05
2017-08-06T14:40:14.246Z,101518.56
2017-08-06T14:42:40.643Z,101518.33
2017-08-06T14:45:07.037Z,101516.72
2017-08-06T14:47:33.419Z,101517.45
2017-08-06T14:49:59.827Z,101515.28
2017-08-06T14:52:26.202Z,101518.63
2017-08-06T14:54:52.578Z,101512.61
2017-08-06T14:57:18.956Z,101513.73
2017-08-06T14:59:45.394Z,101511.00
2017-08-06T15:02:11.742Z,101500.79
2017-08-06T15:04:38.111Z,101502.21
2017-08-06T15:07:04.468Z,101505.36
2017-08-06T15:09:30.823Z,101505.81
2017-08-06T15:11:57.216Z,101508.73
2017-08-06T15:14:23.570Z,101508.72
2017-08-06T15:16:49.973Z,101516.09
2017-08-06T15:19:16.349Z,101516.87
2017-08-06T15:21:42.717Z,101512.98
2017-08-06T15:24:09.091Z,101514.27
2017-08-06T15:26:35.477Z,101513.13
2017-08-06T15:29:01.863Z,101511.13
2017-08-06T15:31:28.253Z,101507.52
2017-08-06T15:33:54.628Z,101513.20
2017-08-06T15:36:21.020Z,101505.46
2017-08-06T15:38:47.418Z,101506.84
2017-08-06T15:41:13.767Z,101505.30
2017-08-06T15:43:40.159Z,101507.07
2017-08-06T15:46:06.519Z,101510.36
2017-08-06T15:48:32.926Z,101505.56
2017-08-06T15:50:59.364Z,101501.39
2017-08-06T15:53:25.760Z,101503.80
2017-08-06T15:55:52.145Z,101506.16
2017-08-06T15:58:18.523Z,101502.22
2017-08-06T16:00:44.909Z,101504.75
2017-08-06T16:03:11.327Z,101509.89
2017-08-06T16:05:37.719Z,101507.34
2017-08-06T16:08:04.109Z,101500.73
2017-08-06T16:10:30.481Z,101505.34
2017-08-06T16:12:56.895Z,101500.74
2017-08-06T16:15:23.290Z,101499.45
2017-08-06T16:17:49.691Z,101495.98
2017-08-06T16:20:16.056Z,101495.05
2017-08-06T16:22:42.403Z,101501.25
2017-08-06T16:25:08.859Z,101499.21
2017-08-06T16:27:35.250Z,101497.94
2017-08-06T16:30:01.681Z,101494.81
2017-08-06T16:32:28.085Z,101492.64
2017-08-06T16:34:54.511Z,101496.17
2017-08-06T16:37:20.881Z,101493.72
2017-08-06T16:39:47.277Z,101493.77
2017-08-06T16:42:13.638Z,101494.58
2017-08-06T16:44:40.019Z,101491.33
2017-08-06T16:47:06.403Z,101489.84
2017-08-06T16:49:32.806Z,101488.59
2017-08-06T16:51:59.218Z,101485.88
2017-08-06T16:54:25.628Z,101490.01
2017-08-06T16:56:52.076Z,101481.67
2017-08-06T16:59:18.469Z,101484.66
2017-08-06T17:01:44.854Z,101476.46
2017-08-06T17:04:11.227Z,101477.44
2017-08-06T17:06:37.717Z,101480.00
2017-08-06T17:09:04.178Z,101470.90
2017-08-06T17:11:30.600Z,101474.67
2017-08-06T17:13:56.985Z,101475.94
2017-08-06T17:16:23.388Z,101477.37
2017-08-06T17:18:49.877Z,101477.03
2017-08-06T17:21:16.255Z,101477.33
2017-08-06T17:23:42.696Z,101474.78
2017-08-06T17:26:09.074Z,101480.27
2017-08-06T17:28:35.494Z,101471.01
2017-08-06T17:31:01.850Z,101477.58
2017-08-06T17:33:28.241Z,101475.08
2017-08-06T17:35:54.594Z,101480.17
2017-08-06T17:38:20.988Z,101480.77
2017-08-06T17:40:47.360Z,101483.00
2017-08-06T17:43:13.725Z,101479.37
2017-08-06T17:45:40.171Z,101482.78
2017-08-06T17:48:06.532Z,101479.42
2017-08-06T17:50:32.901Z,101483.02
2017-08-06T17:52:59.263Z,101477.69
2017-08-06T17:55:25.644Z,101478.41
2017-08-06T17:57:52.046Z,101475.76
2017-08-06T18:00:18.479Z,101477.56
2017-08-06T18:02:44.900Z,101485.18
2017-08-06T18:05:11.268Z,101477.57
2017-08-06T18:07:37.701Z,101478.67
2017-08-06T18:10:04.090Z,101477.69
2017-08-06T18:12:30.484Z,101478.69
2017-08-06T18:14:56.863Z,101481.47
2017-08-06T18:17:23.245Z,101485.94
2017-08-06T18:19:49.646Z,101480.87
2017-08-06T18:22:16.026Z,101477.26
2017-08-06T18:24:42.384Z,101480.76
2017-08-06T18:27:08.756Z,101477.03
2017-08-06T18:29:35.114Z,101480.59
2017-08-06T18:32:01.488Z,101478.55
2017-08-06T18:34:27.875Z,101483.79
2017-08-06T18:36:54.297Z,101482.78
2017-08-06T18:39:20.661Z,101484.47
2017-08-06T18:41:47.045Z,101481.80
2017-08-06T18:44:13.448Z,101485.95
2017-08-06T18:46:39.821Z,101481.02
2017-08-06T18:49:06.222Z,101479.80
2017-08-06T18:51:32.578Z,101483.89
2017-08-06T18:53:58.949Z,101486.74
2017-08-06T18:56:25.337Z,101489.33
2017-08-06T18:58:51.740Z,101482.84
2017-08-06T19:01:18.146Z,101487.52
2017-08-06T19:03:44.535Z,101485.43
2017-08-06T19:06:10.918Z,101489.48
2017-08-06T19:08:37.314Z,101490.41
2017-08-06T19:11:03.701Z,101489.35
2017-08-06T19:13:30.073Z,101497.43
2017-08-06T19:15:56.463Z,101498.47
2017-08-06T19:18:22.924Z,101498.44
2017-08-06T19:20:49.297Z,101502.95
2017-08-06T19:23:16.053Z,101497.14
2017-08-06T19:25:42.453Z,101508.92
2017-08-06T19:28:08.851Z,101516.76
2017-08-06T19:30:35.249Z,101523.09
2017-08-06T19:33:01.638Z,101523.52
2017-08-06T19:35:28.110Z,101526.48
2017-08-06T19:37:54.501Z,101515.75
2017-08-06T19:40:20.893Z,101519.76
2017-08-06T19:42:47.286Z,101520.91
2017-08-06T19:45:13.691Z,101526.78
2017-08-06T19:47:40.064Z,101524.97
2017-08-06T19:50:06.725Z,101521.95
2017-08-06T19:52:33.063Z,101520.80
2017-08-06T19:54:59.473Z,101521.34
2017-08-06T19:57:25.843Z,101523.86
2017-08-06T19:59:52.235Z,101515.70
2017-08-06T20:02:18.848Z,101520.72
2017-08-06T20:04:45.512Z,101523.57
2017-08-06T20:07:11.891Z,101522.30
2017-08-06T20:09:40.214Z,101517.91
2017-08-06T20:12:06.597Z,101513.25
2017-08-06T20:14:32.954Z,101517.30
2017-08-06T20:16:59.327Z,101513.09
2017-08-06T20:19:25.712Z,101515.32
2017-08-06T20:21:52.161Z,101510.38
2017-08-06T20:24:18.504Z,101510.24
2017-08-06T20:26:44.911Z,101508.36
2017-08-06T20:29:11.328Z,101513.92
2017-08-06T20:31:37.709Z,101506.08
2017-08-06T20:34:04.221Z,101513.63
2017-08-06T20:36:30.781Z,101515.31
2017-08-06T20:38:57.265Z,101513.38
2017-08-06T20:41:23.635Z,101513.23
2017-08-06T20:43:50.065Z,101512.02
2017-08-06T20:46:16.871Z,101512.13
2017-08-06T20:48:43.286Z,101514.09
2017-08-06T20:51:09.634Z,101514.83
2017-08-06T20:53:35.979Z,101511.70
2017-08-06T20:56:02.384Z,101506.98
2017-08-06T20:58:28.788Z,101506.16
2017-08-06T21:00:55.150Z,101513.72
2017-08-06T21:03:21.501Z,101509.45
2017-08-06T21:05:47.899Z,101510.38
2017-08-06T21:08:14.285Z,101508.76
2017-08-06T21:10:40.666Z,101507.94
2017-08-06T21:13:07.019Z,101509.46
2017-08-06T21:15:33.398Z,101510.31
2017-08-06T21:17:59.768Z,101511.59
2017-08-06T21:20:26.125Z,101505.73
2017-08-06T21:22:52.533Z,101506.22
2017-08-06T21:25:18.909Z,101508.56
2017-08-06T21:27:45.270Z,101505.36
2017-08-06T21:30:11.628Z,101505.67
2017-08-06T21:32:38.013Z,101507.01
2017-08-06T21:35:04.371Z,101500.30
2017-08-06T21:37:30.720Z,101507.61
2017-08-06T21:39:57.092Z,101508.17
2017-08-06T21:42:23.465Z,101509.52
2017-08-06T21:44:49.856Z,101507.96
2017-08-06T21:47:16.180Z,101504.00
2017-08-06T21:49:42.560Z,101504.95
2017-08-06T21:52:13.410Z,101509.04
2017-08-06T21:54:39.940Z,101508.21
2017-08-06T21:57:06.289Z,101511.72
2017-08-06T21:59:32.671Z,101510.21
2017-08-06T22:01:59.056Z,101509.86
2017-08-06T22:04:25.561Z,101505.33
2017-08-06T22:06:51.918Z,101505.69
2017-08-06T22:09:18.285Z,101506.33
2017-08-06T22:11:44.645Z,101508.25
2017-08-06T22:14:11.013Z,101511.45
2017-08-06T22:16:37.456Z,101511.04
2017-08-06T22:19:03.810Z,101511.41
2017-08-06T22:21:32.765Z,101507.11
2017-08-06T22:23:59.093Z,101501.91
2017-08-06T22:26:25.440Z,101500.02
2017-08-06T22:28:51.764Z,101507.74
2017-08-06T22:31:18.125Z,101504.16
2017-08-06T22:33:44.458Z,101512.42
2017-08-06T22:36:10.798Z,101511.77
2017-08-06T22:38:37.164Z,101511.18
2017-08-06T22:41:03.510Z,101515.19
2017-08-06T22:43:29.838Z,101514.36
2017-08-06T22:45:56.211Z,101515.76
2017-08-06T22:48:22.579Z,101502.91
2017-08-06T22:50:48.929Z,101500.33
2017-08-06T22:53:15.270Z,101500.80
2017-08-06T22:55:41.633Z,101496.41
2017-08-06T22:58:08.036Z,101509.38
2017-08-06T23:00:34.395Z,101507.14
2017-08-06T23:03:00.755Z,101510.15
2017-08-06T23:05:27.132Z,101506.81
2017-08-06T23:07:53.485Z,101505.31
2017-08-06T23:10:19.862Z,101498.66
2017-08-06T23:12:46.221Z,101499.17
2017-08-06T23:15:12.566Z,101498.38
2017-08-06T23:17:38.951Z,101498.06
2017-08-06T23:20:05.334Z,101490.13
2017-08-06T23:22:31.698Z,101492.21
2017-08-06T23:24:58.043Z,101496.14
2017-08-06T23:27:24.382Z,101493.97
2017-08-06T23:29:50.736Z,101496.56
2017-08-06T23:32:17.092Z,101492.19
2017-08-06T23:34:43.512Z,101491.55
2017-08-06T23:37:09.935Z,101487.89
2017-08-06T23:39:36.440Z,101479.23
2017-08-06T23:42:02.820Z,101480.95
2017-08-06T23:44:29.206Z,101484.25
2017-08-06T23:46:55.630Z,101476.39
2017-08-06T23:49:22.017Z,101478.47
2017-08-06T23:51:48.387Z,101474.62
2017-08-06T23:54:14.772Z,101468.98
2017-08-06T23:56:41.160Z,101465.09
2017-08-06T23:59:07.610Z,101461.75
